sensor_id;sensor_type;location;lat;lon;timestamp;temperature;humidity
29003;DHT22;16102;57.138;-2.118;2022-07-23T00:00:22;14.90;99.90
29003;DHT22;16102;57.138;-2.118;2022-07-23T00:02:49;14.80;1.00
29003;DHT22;16102;57.138;-2.118;2022-07-23T00:05:16;14.80;1.00
29003;DHT22;16102;57.138;-2.118;2022-07-23T00:07:43;14.80;1.00
29003;DHT22;16102;57.138;-2.118;2022-07-23T00:10:10;14.70;1.00
29003;DHT22;16102;57.138;-2.118;2022-07-23T00:12:38;14.60;1.00
29003;DHT22;16102;57.138;-2.118;2022-07-23T00:15:18;14.50;1.00
29003;DHT22;16102;57.138;-2.118;2022-07-23T00:17:45;14.60;1.00
29003;DHT22;16102;57.138;-2.118;2022-07-23T00:20:12;14.60;1.00
29003;DHT22;16102;57.138;-2.118;2022-07-23T00:23:06;14.60;1.00
29003;DHT22;16102;57.138;-2.118;2022-07-23T00:25:34;14.50;1.00
29003;DHT22;16102;57.138;-2.118;2022-07-23T00:28:02;14.50;1.00
29003;DHT22;16102;57.138;-2.118;2022-07-23T00:30:31;14.60;1.00
29003;DHT22;16102;57.138;-2.118;2022-07-23T00:33:05;14.60;1.00
29003;DHT22;16102;57.138;-2.118;2022-07-23T00:35:35;14.80;1.00
29003;DHT22;16102;57.138;-2.118;2022-07-23T00:38:03;14.80;1.00
29003;DHT22;16102;57.138;-2.118;2022-07-23T00:40:31;14.70;1.00
29003;DHT22;16102;57.138;-2.118;2022-07-23T00:42:58;14.60;1.00
29003;DHT22;16102;57.138;-2.118;2022-07-23T00:45:26;14.60;1.00
29003;DHT22;16102;57.138;-2.118;2022-07-23T00:47:54;14.70;1.00
29003;DHT22;16102;57.138;-2.118;2022-07-23T00:50:21;14.60;1.00
29003;DHT22;16102;57.138;-2.118;2022-07-23T00:52:49;14.60;1.00
29003;DHT22;16102;57.138;-2.118;2022-07-23T00:55:16;14.50;1.00
29003;DHT22;16102;57.138;-2.118;2022-07-23T00:57:43;14.60;1.00
29003;DHT22;16102;57.138;-2.118;2022-07-23T01:00:13;14.60;1.00
29003;DHT22;16102;57.138;-2.118;2022-07-23T01:02:41;14.60;1.00
29003;DHT22;16102;57.138;-2.118;2022-07-23T01:05:09;14.60;1.00
29003;DHT22;16102;57.138;-2.118;2022-07-23T01:07:36;14.70;1.00
29003;DHT22;16102;57.138;-2.118;2022-07-23T01:10:05;14.80;1.00
29003;DHT22;16102;57.138;-2.118;2022-07-23T01:12:52;14.80;1.00
29003;DHT22;16102;57.138;-2.118;2022-07-23T01:15:19;14.80;1.00
29003;DHT22;16102;57.138;-2.118;2022-07-23T01:17:46;14.90;1.00
29003;DHT22;16102;57.138;-2.118;2022-07-23T01:20:13;14.90;1.00
29003;DHT22;16102;57.138;-2.118;2022-07-23T01:22:40;14.90;1.00
29003;DHT22;16102;57.138;-2.118;2022-07-23T01:25:08;14.70;1.00
29003;DHT22;16102;57.138;-2.118;2022-07-23T01:27:35;14.80;1.00
29003;DHT22;16102;57.138;-2.118;2022-07-23T01:30:04;14.90;1.00
29003;DHT22;16102;57.138;-2.118;2022-07-23T01:32:31;14.90;1.00
29003;DHT22;16102;57.138;-2.118;2022-07-23T01:34:58;14.80;1.00
29003;DHT22;16102;57.138;-2.118;2022-07-23T01:37:25;14.90;1.00
29003;DHT22;16102;57.138;-2.118;2022-07-23T01:39:52;14.80;1.00
29003;DHT22;16102;57.138;-2.118;2022-07-23T01:42:19;14.80;1.00
29003;DHT22;16102;57.138;-2.118;2022-07-23T01:44:47;14.90;1.00
29003;DHT22;16102;57.138;-2.118;2022-07-23T01:47:14;14.90;1.00
29003;DHT22;16102;57.138;-2.118;2022-07-23T01:49:41;14.90;1.00
29003;DHT22;16102;57.138;-2.118;2022-07-23T01:52:08;15.00;1.00
29003;DHT22;16102;57.138;-2.118;2022-07-23T01:54:38;15.00;1.00
29003;DHT22;16102;57.138;-2.118;2022-07-23T01:57:07;14.90;1.00
29003;DHT22;16102;57.138;-2.118;2022-07-23T01:59:34;15.00;1.00
29003;DHT22;16102;57.138;-2.118;2022-07-23T02:02:02;15.00;1.00
29003;DHT22;16102;57.138;-2.118;2022-07-23T02:04:30;15.10;1.00
29003;DHT22;16102;57.138;-2.118;2022-07-23T02:06:57;15.00;1.00
29003;DHT22;16102;57.138;-2.118;2022-07-23T02:09:24;15.10;1.00
29003;DHT22;16102;57.138;-2.118;2022-07-23T02:11:51;15.10;1.00
29003;DHT22;16102;57.138;-2.118;2022-07-23T02:14:19;15.10;1.00
29003;DHT22;16102;57.138;-2.118;2022-07-23T02:16:46;15.20;1.00
29003;DHT22;16102;57.138;-2.118;2022-07-23T02:19:13;15.20;1.00
29003;DHT22;16102;57.138;-2.118;2022-07-23T02:21:40;15.20;1.00
29003;DHT22;16102;57.138;-2.118;2022-07-23T02:24:08;15.20;1.00
29003;DHT22;16102;57.138;-2.118;2022-07-23T02:26:35;15.20;1.00
29003;DHT22;16102;57.138;-2.118;2022-07-23T02:29:03;15.20;1.00
29003;DHT22;16102;57.138;-2.118;2022-07-23T02:31:31;15.20;1.00
29003;DHT22;16102;57.138;-2.118;2022-07-23T02:33:59;15.30;1.00
29003;DHT22;16102;57.138;-2.118;2022-07-23T02:36:26;15.20;1.00
29003;DHT22;16102;57.138;-2.118;2022-07-23T02:38:53;15.10;1.00
29003;DHT22;16102;57.138;-2.118;2022-07-23T02:41:20;15.10;1.00
29003;DHT22;16102;57.138;-2.118;2022-07-23T02:43:47;15.20;1.00
29003;DHT22;16102;57.138;-2.118;2022-07-23T02:46:14;15.20;1.00
29003;DHT22;16102;57.138;-2.118;2022-07-23T02:48:42;15.20;1.00
29003;DHT22;16102;57.138;-2.118;2022-07-23T02:51:09;15.40;1.00
29003;DHT22;16102;57.138;-2.118;2022-07-23T02:53:40;15.40;1.00
29003;DHT22;16102;57.138;-2.118;2022-07-23T02:56:08;15.20;1.00
29003;DHT22;16102;57.138;-2.118;2022-07-23T02:58:35;15.20;1.00
29003;DHT22;16102;57.138;-2.118;2022-07-23T03:01:02;15.20;1.00
29003;DHT22;16102;57.138;-2.118;2022-07-23T03:03:29;15.20;1.00
29003;DHT22;16102;57.138;-2.118;2022-07-23T03:05:57;15.30;1.00
29003;DHT22;16102;57.138;-2.118;2022-07-23T03:08:24;15.40;1.00
29003;DHT22;16102;57.138;-2.118;2022-07-23T03:10:51;15.30;1.00
29003;DHT22;16102;57.138;-2.118;2022-07-23T03:13:18;15.40;1.00
29003;DHT22;16102;57.138;-2.118;2022-07-23T03:15:45;15.40;1.00
29003;DHT22;16102;57.138;-2.118;2022-07-23T03:18:12;15.40;1.00
29003;DHT22;16102;57.138;-2.118;2022-07-23T03:20:39;15.30;1.00
29003;DHT22;16102;57.138;-2.118;2022-07-23T03:23:06;15.20;1.00
29003;DHT22;16102;57.138;-2.118;2022-07-23T03:25:33;15.30;1.00
29003;DHT22;16102;57.138;-2.118;2022-07-23T03:28:00;15.30;1.00
29003;DHT22;16102;57.138;-2.118;2022-07-23T03:30:27;15.40;1.00
29003;DHT22;16102;57.138;-2.118;2022-07-23T03:32:55;15.40;1.00
29003;DHT22;16102;57.138;-2.118;2022-07-23T03:35:22;15.50;1.00
29003;DHT22;16102;57.138;-2.118;2022-07-23T03:37:49;15.50;1.00
29003;DHT22;16102;57.138;-2.118;2022-07-23T03:40:16;15.50;1.00
29003;DHT22;16102;57.138;-2.118;2022-07-23T03:42:43;15.50;1.00
29003;DHT22;16102;57.138;-2.118;2022-07-23T03:45:10;15.50;1.00
29003;DHT22;16102;57.138;-2.118;2022-07-23T03:47:37;15.50;1.00
29003;DHT22;16102;57.138;-2.118;2022-07-23T03:50:06;15.60;1.00
29003;DHT22;16102;57.138;-2.118;2022-07-23T03:52:33;15.60;1.00
29003;DHT22;16102;57.138;-2.118;2022-07-23T03:55:01;15.60;1.00
29003;DHT22;16102;57.138;-2.118;2022-07-23T03:57:28;15.50;1.00
29003;DHT22;16102;57.138;-2.118;2022-07-23T03:59:55;15.50;1.00
29003;DHT22;16102;57.138;-2.118;2022-07-23T04:02:22;15.60;1.00
29003;DHT22;16102;57.138;-2.118;2022-07-23T04:04:49;15.50;1.00
29003;DHT22;16102;57.138;-2.118;2022-07-23T04:07:17;15.50;1.00
29003;DHT22;16102;57.138;-2.118;2022-07-23T04:09:44;15.50;1.00
29003;DHT22;16102;57.138;-2.118;2022-07-23T04:12:12;15.50;1.00
29003;DHT22;16102;57.138;-2.118;2022-07-23T04:14:39;15.40;1.00
29003;DHT22;16102;57.138;-2.118;2022-07-23T04:17:06;15.40;1.00
29003;DHT22;16102;57.138;-2.118;2022-07-23T04:19:33;15.50;1.00
29003;DHT22;16102;57.138;-2.118;2022-07-23T04:22:03;15.50;1.00
29003;DHT22;16102;57.138;-2.118;2022-07-23T04:24:30;15.50;1.00
29003;DHT22;16102;57.138;-2.118;2022-07-23T04:26:57;15.40;1.00
29003;DHT22;16102;57.138;-2.118;2022-07-23T04:29:24;15.40;1.00
29003;DHT22;16102;57.138;-2.118;2022-07-23T04:31:51;15.40;1.00
29003;DHT22;16102;57.138;-2.118;2022-07-23T04:34:19;15.30;1.00
29003;DHT22;16102;57.138;-2.118;2022-07-23T04:36:46;15.40;1.00
29003;DHT22;16102;57.138;-2.118;2022-07-23T04:39:13;15.40;1.00
29003;DHT22;16102;57.138;-2.118;2022-07-23T04:41:40;15.40;1.00
29003;DHT22;16102;57.138;-2.118;2022-07-23T04:44:07;15.50;1.00
29003;DHT22;16102;57.138;-2.118;2022-07-23T04:46:34;15.50;1.00
29003;DHT22;16102;57.138;-2.118;2022-07-23T04:49:02;15.60;1.00
29003;DHT22;16102;57.138;-2.118;2022-07-23T04:51:29;15.50;1.00
29003;DHT22;16102;57.138;-2.118;2022-07-23T04:53:57;15.40;1.00
29003;DHT22;16102;57.138;-2.118;2022-07-23T04:56:24;15.40;1.00
29003;DHT22;16102;57.138;-2.118;2022-07-23T04:58:51;15.40;1.00
29003;DHT22;16102;57.138;-2.118;2022-07-23T05:01:18;15.50;1.00
29003;DHT22;16102;57.138;-2.118;2022-07-23T05:03:45;15.50;1.00
29003;DHT22;16102;57.138;-2.118;2022-07-23T05:06:12;15.50;1.00
29003;DHT22;16102;57.138;-2.118;2022-07-23T05:08:39;15.60;1.00
29003;DHT22;16102;57.138;-2.118;2022-07-23T05:11:06;15.50;1.00
29003;DHT22;16102;57.138;-2.118;2022-07-23T05:13:33;15.50;1.00
29003;DHT22;16102;57.138;-2.118;2022-07-23T05:16:00;15.50;1.00
29003;DHT22;16102;57.138;-2.118;2022-07-23T05:18:27;15.50;1.00
29003;DHT22;16102;57.138;-2.118;2022-07-23T05:20:54;15.40;1.00
29003;DHT22;16102;57.138;-2.118;2022-07-23T05:23:22;15.50;1.00
29003;DHT22;16102;57.138;-2.118;2022-07-23T05:25:49;15.50;1.00
29003;DHT22;16102;57.138;-2.118;2022-07-23T05:28:16;15.60;1.00
29003;DHT22;16102;57.138;-2.118;2022-07-23T05:30:48;15.50;1.00
29003;DHT22;16102;57.138;-2.118;2022-07-23T05:33:17;15.60;1.00
29003;DHT22;16102;57.138;-2.118;2022-07-23T05:35:45;15.60;1.00
29003;DHT22;16102;57.138;-2.118;2022-07-23T05:38:12;15.50;1.00
29003;DHT22;16102;57.138;-2.118;2022-07-23T05:40:39;15.40;1.00
29003;DHT22;16102;57.138;-2.118;2022-07-23T05:43:06;15.40;19.50
29003;DHT22;16102;57.138;-2.118;2022-07-23T05:45:33;15.50;20.50
29003;DHT22;16102;57.138;-2.118;2022-07-23T05:48:00;15.50;19.40
29003;DHT22;16102;57.138;-2.118;2022-07-23T05:50:28;15.40;22.40
29003;DHT22;16102;57.138;-2.118;2022-07-23T05:52:55;15.50;32.60
29003;DHT22;16102;57.138;-2.118;2022-07-23T05:55:22;15.60;33.10
29003;DHT22;16102;57.138;-2.118;2022-07-23T05:57:49;15.70;33.50
29003;DHT22;16102;57.138;-2.118;2022-07-23T06:00:16;15.70;10.40
29003;DHT22;16102;57.138;-2.118;2022-07-23T06:02:43;15.80;3.90
29003;DHT22;16102;57.138;-2.118;2022-07-23T06:05:11;15.80;1.00
29003;DHT22;16102;57.138;-2.118;2022-07-23T06:07:38;15.90;1.00
29003;DHT22;16102;57.138;-2.118;2022-07-23T06:10:05;15.80;1.00
29003;DHT22;16102;57.138;-2.118;2022-07-23T06:12:33;15.80;1.00
29003;DHT22;16102;57.138;-2.118;2022-07-23T06:15:00;16.00;1.00
29003;DHT22;16102;57.138;-2.118;2022-07-23T06:17:28;15.90;1.00
29003;DHT22;16102;57.138;-2.118;2022-07-23T06:19:55;16.10;1.00
29003;DHT22;16102;57.138;-2.118;2022-07-23T06:22:22;16.00;1.00
29003;DHT22;16102;57.138;-2.118;2022-07-23T06:24:50;16.00;1.00
29003;DHT22;16102;57.138;-2.118;2022-07-23T06:27:18;16.00;1.00
29003;DHT22;16102;57.138;-2.118;2022-07-23T06:29:52;15.90;1.00
29003;DHT22;16102;57.138;-2.118;2022-07-23T06:32:19;15.90;1.00
29003;DHT22;16102;57.138;-2.118;2022-07-23T06:34:47;15.90;1.00
29003;DHT22;16102;57.138;-2.118;2022-07-23T06:37:15;15.90;1.00
29003;DHT22;16102;57.138;-2.118;2022-07-23T06:39:43;15.90;1.00
29003;DHT22;16102;57.138;-2.118;2022-07-23T06:42:11;15.70;1.00
29003;DHT22;16102;57.138;-2.118;2022-07-23T06:44:39;15.70;1.10
29003;DHT22;16102;57.138;-2.118;2022-07-23T06:47:06;15.70;4.80
29003;DHT22;16102;57.138;-2.118;2022-07-23T06:49:33;15.70;7.10
29003;DHT22;16102;57.138;-2.118;2022-07-23T06:52:00;15.70;12.90
29003;DHT22;16102;57.138;-2.118;2022-07-23T06:54:27;15.80;12.00
29003;DHT22;16102;57.138;-2.118;2022-07-23T06:56:54;15.80;1.00
29003;DHT22;16102;57.138;-2.118;2022-07-23T06:59:21;15.80;7.00
29003;DHT22;16102;57.138;-2.118;2022-07-23T07:01:48;15.80;8.30
29003;DHT22;16102;57.138;-2.118;2022-07-23T07:04:16;15.90;10.50
29003;DHT22;16102;57.138;-2.118;2022-07-23T07:06:43;15.90;1.00
29003;DHT22;16102;57.138;-2.118;2022-07-23T07:09:10;16.00;2.00
29003;DHT22;16102;57.138;-2.118;2022-07-23T07:11:37;15.80;2.50
29003;DHT22;16102;57.138;-2.118;2022-07-23T07:14:04;15.90;6.00
29003;DHT22;16102;57.138;-2.118;2022-07-23T07:16:31;16.00;1.00
29003;DHT22;16102;57.138;-2.118;2022-07-23T07:18:59;16.00;1.00
29003;DHT22;16102;57.138;-2.118;2022-07-23T07:21:28;16.00;1.00
29003;DHT22;16102;57.138;-2.118;2022-07-23T07:23:55;15.90;1.00
29003;DHT22;16102;57.138;-2.118;2022-07-23T07:26:22;15.90;1.00
29003;DHT22;16102;57.138;-2.118;2022-07-23T07:28:49;15.90;1.00
29003;DHT22;16102;57.138;-2.118;2022-07-23T07:31:16;15.90;1.00
29003;DHT22;16102;57.138;-2.118;2022-07-23T07:33:43;15.90;1.00
29003;DHT22;16102;57.138;-2.118;2022-07-23T07:36:11;15.80;1.00
29003;DHT22;16102;57.138;-2.118;2022-07-23T07:38:45;15.90;1.00
29003;DHT22;16102;57.138;-2.118;2022-07-23T07:41:12;15.80;1.90
29003;DHT22;16102;57.138;-2.118;2022-07-23T07:43:40;15.90;9.00
29003;DHT22;16102;57.138;-2.118;2022-07-23T07:46:07;16.00;6.50
29003;DHT22;16102;57.138;-2.118;2022-07-23T07:48:37;16.00;1.00
29003;DHT22;16102;57.138;-2.118;2022-07-23T07:51:05;16.00;1.00
29003;DHT22;16102;57.138;-2.118;2022-07-23T07:53:32;15.90;1.00
29003;DHT22;16102;57.138;-2.118;2022-07-23T07:55:59;16.00;21.80
29003;DHT22;16102;57.138;-2.118;2022-07-23T07:58:26;16.10;21.20
29003;DHT22;16102;57.138;-2.118;2022-07-23T08:00:54;16.10;16.20
29003;DHT22;16102;57.138;-2.118;2022-07-23T08:03:21;16.10;16.70
29003;DHT22;16102;57.138;-2.118;2022-07-23T08:05:49;16.10;20.00
29003;DHT22;16102;57.138;-2.118;2022-07-23T08:08:16;16.20;28.70
29003;DHT22;16102;57.138;-2.118;2022-07-23T08:10:43;16.10;18.80
29003;DHT22;16102;57.138;-2.118;2022-07-23T08:13:14;16.10;57.80
29003;DHT22;16102;57.138;-2.118;2022-07-23T08:15:42;16.20;53.60
29003;DHT22;16102;57.138;-2.118;2022-07-23T08:18:09;16.30;26.80
29003;DHT22;16102;57.138;-2.118;2022-07-23T08:20:37;16.40;15.80
29003;DHT22;16102;57.138;-2.118;2022-07-23T08:23:05;16.30;1.00
29003;DHT22;16102;57.138;-2.118;2022-07-23T08:25:38;16.40;1.00
29003;DHT22;16102;57.138;-2.118;2022-07-23T08:28:09;16.50;1.00
29003;DHT22;16102;57.138;-2.118;2022-07-23T08:30:37;16.60;1.00
29003;DHT22;16102;57.138;-2.118;2022-07-23T08:33:06;16.50;1.00
29003;DHT22;16102;57.138;-2.118;2022-07-23T08:36:01;16.50;1.00
29003;DHT22;16102;57.138;-2.118;2022-07-23T08:38:30;16.50;1.00
29003;DHT22;16102;57.138;-2.118;2022-07-23T08:40:57;16.60;1.00
29003;DHT22;16102;57.138;-2.118;2022-07-23T08:43:31;16.70;1.00
29003;DHT22;16102;57.138;-2.118;2022-07-23T08:45:59;16.80;1.00
29003;DHT22;16102;57.138;-2.118;2022-07-23T08:48:32;16.80;1.00
29003;DHT22;16102;57.138;-2.118;2022-07-23T08:51:02;17.00;1.00
29003;DHT22;16102;57.138;-2.118;2022-07-23T08:53:30;17.00;1.00
29003;DHT22;16102;57.138;-2.118;2022-07-23T08:56:00;16.80;1.00
29003;DHT22;16102;57.138;-2.118;2022-07-23T08:58:29;16.90;1.00
29003;DHT22;16102;57.138;-2.118;2022-07-23T09:00:56;16.90;1.00
29003;DHT22;16102;57.138;-2.118;2022-07-23T09:03:27;16.90;1.00
29003;DHT22;16102;57.138;-2.118;2022-07-23T09:05:56;16.90;1.00
29003;DHT22;16102;57.138;-2.118;2022-07-23T09:08:26;17.00;1.00
29003;DHT22;16102;57.138;-2.118;2022-07-23T09:11:01;17.20;1.00
29003;DHT22;16102;57.138;-2.118;2022-07-23T09:16:17;17.40;1.00
29003;DHT22;16102;57.138;-2.118;2022-07-23T09:19:01;17.30;1.00
29003;DHT22;16102;57.138;-2.118;2022-07-23T09:21:39;17.00;1.00
29003;DHT22;16102;57.138;-2.118;2022-07-23T09:24:11;17.10;1.00
29003;DHT22;16102;57.138;-2.118;2022-07-23T09:26:40;17.00;1.00
29003;DHT22;16102;57.138;-2.118;2022-07-23T09:29:19;17.00;1.00
29003;DHT22;16102;57.138;-2.118;2022-07-23T09:34:23;16.70;1.00
29003;DHT22;16102;57.138;-2.118;2022-07-23T09:36:56;16.40;19.90
29003;DHT22;16102;57.138;-2.118;2022-07-23T09:39:32;16.50;77.50
29003;DHT22;16102;57.138;-2.118;2022-07-23T09:42:21;16.40;99.90
29003;DHT22;16102;57.138;-2.118;2022-07-23T09:44:56;16.50;99.90
29003;DHT22;16102;57.138;-2.118;2022-07-23T09:47:25;16.30;99.90
29003;DHT22;16102;57.138;-2.118;2022-07-23T09:49:59;16.00;99.90
29003;DHT22;16102;57.138;-2.118;2022-07-23T09:52:29;16.00;99.90
29003;DHT22;16102;57.138;-2.118;2022-07-23T09:55:03;16.20;99.90
29003;DHT22;16102;57.138;-2.118;2022-07-23T09:57:34;16.20;99.90
29003;DHT22;16102;57.138;-2.118;2022-07-23T10:00:04;16.30;99.90
29003;DHT22;16102;57.138;-2.118;2022-07-23T10:02:33;16.20;99.90
29003;DHT22;16102;57.138;-2.118;2022-07-23T10:05:02;16.30;99.90
29003;DHT22;16102;57.138;-2.118;2022-07-23T10:07:34;16.10;99.90
29003;DHT22;16102;57.138;-2.118;2022-07-23T10:10:03;16.10;99.90
29003;DHT22;16102;57.138;-2.118;2022-07-23T10:12:31;16.20;99.90
29003;DHT22;16102;57.138;-2.118;2022-07-23T10:15:14;16.40;99.90
29003;DHT22;16102;57.138;-2.118;2022-07-23T10:17:41;16.40;99.90
29003;DHT22;16102;57.138;-2.118;2022-07-23T10:20:08;16.20;99.90
29003;DHT22;16102;57.138;-2.118;2022-07-23T10:22:44;16.00;99.90
29003;DHT22;16102;57.138;-2.118;2022-07-23T10:25:22;16.00;99.90
29003;DHT22;16102;57.138;-2.118;2022-07-23T10:36:24;16.30;99.90
29003;DHT22;16102;57.138;-2.118;2022-07-23T10:41:39;16.30;99.90
29003;DHT22;16102;57.138;-2.118;2022-07-23T10:44:14;16.20;99.90
29003;DHT22;16102;57.138;-2.118;2022-07-23T10:47:09;16.40;99.90
29003;DHT22;16102;57.138;-2.118;2022-07-23T10:49:49;16.50;99.90
29003;DHT22;16102;57.138;-2.118;2022-07-23T10:52:22;16.80;99.90
29003;DHT22;16102;57.138;-2.118;2022-07-23T10:57:28;16.70;99.90
29003;DHT22;16102;57.138;-2.118;2022-07-23T11:02:34;16.90;99.90
29003;DHT22;16102;57.138;-2.118;2022-07-23T11:05:06;17.20;99.90
29003;DHT22;16102;57.138;-2.118;2022-07-23T11:08:09;17.30;99.90
29003;DHT22;16102;57.138;-2.118;2022-07-23T11:10:37;17.40;91.70
29003;DHT22;16102;57.138;-2.118;2022-07-23T11:24:11;17.10;97.90
29003;DHT22;16102;57.138;-2.118;2022-07-23T11:26:45;17.00;99.90
29003;DHT22;16102;57.138;-2.118;2022-07-23T11:34:40;16.80;99.90
29003;DHT22;16102;57.138;-2.118;2022-07-23T11:37:10;16.90;99.90
29003;DHT22;16102;57.138;-2.118;2022-07-23T11:39:38;16.80;99.90
29003;DHT22;16102;57.138;-2.118;2022-07-23T11:42:07;16.80;99.90
29003;DHT22;16102;57.138;-2.118;2022-07-23T11:44:38;17.00;99.90
29003;DHT22;16102;57.138;-2.118;2022-07-23T11:47:08;17.00;99.90
29003;DHT22;16102;57.138;-2.118;2022-07-23T11:49:37;17.20;95.90
29003;DHT22;16102;57.138;-2.118;2022-07-23T11:52:06;17.30;23.60
29003;DHT22;16102;57.138;-2.118;2022-07-23T11:54:35;17.00;12.90
29003;DHT22;16102;57.138;-2.118;2022-07-23T11:57:06;17.20;16.70
29003;DHT22;16102;57.138;-2.118;2022-07-23T11:59:34;17.20;1.00
29003;DHT22;16102;57.138;-2.118;2022-07-23T12:02:04;17.20;1.00
29003;DHT22;16102;57.138;-2.118;2022-07-23T12:04:43;17.40;1.00
29003;DHT22;16102;57.138;-2.118;2022-07-23T12:07:31;17.60;1.00
29003;DHT22;16102;57.138;-2.118;2022-07-23T12:10:21;17.50;1.00
29003;DHT22;16102;57.138;-2.118;2022-07-23T12:12:50;17.70;1.00
29003;DHT22;16102;57.138;-2.118;2022-07-23T12:15:21;17.50;1.00
29003;DHT22;16102;57.138;-2.118;2022-07-23T12:17:50;17.20;1.00
29003;DHT22;16102;57.138;-2.118;2022-07-23T12:20:21;17.30;1.00
29003;DHT22;16102;57.138;-2.118;2022-07-23T12:22:51;17.10;1.00
29003;DHT22;16102;57.138;-2.118;2022-07-23T12:25:20;17.20;1.00
29003;DHT22;16102;57.138;-2.118;2022-07-23T12:27:59;17.40;1.00
29003;DHT22;16102;57.138;-2.118;2022-07-23T12:30:34;17.40;1.00
29003;DHT22;16102;57.138;-2.118;2022-07-23T12:33:01;17.20;1.00
29003;DHT22;16102;57.138;-2.118;2022-07-23T12:35:38;17.30;1.00
29003;DHT22;16102;57.138;-2.118;2022-07-23T12:38:16;17.30;1.00
29003;DHT22;16102;57.138;-2.118;2022-07-23T12:40:49;17.40;1.00
29003;DHT22;16102;57.138;-2.118;2022-07-23T12:43:36;17.40;1.00
29003;DHT22;16102;57.138;-2.118;2022-07-23T12:46:07;17.50;1.00
29003;DHT22;16102;57.138;-2.118;2022-07-23T12:48:36;17.30;1.00
29003;DHT22;16102;57.138;-2.118;2022-07-23T12:51:29;17.40;1.00
29003;DHT22;16102;57.138;-2.118;2022-07-23T12:54:07;17.30;1.00
29003;DHT22;16102;57.138;-2.118;2022-07-23T12:56:36;17.00;1.00
29003;DHT22;16102;57.138;-2.118;2022-07-23T12:59:05;17.10;1.00
29003;DHT22;16102;57.138;-2.118;2022-07-23T13:01:39;17.00;1.00
29003;DHT22;16102;57.138;-2.118;2022-07-23T13:04:12;17.00;1.00
29003;DHT22;16102;57.138;-2.118;2022-07-23T13:06:51;17.00;1.00
29003;DHT22;16102;57.138;-2.118;2022-07-23T13:09:29;17.10;5.50
29003;DHT22;16102;57.138;-2.118;2022-07-23T13:11:59;17.20;1.00
29003;DHT22;16102;57.138;-2.118;2022-07-23T13:14:27;17.30;1.00
29003;DHT22;16102;57.138;-2.118;2022-07-23T13:16:55;17.40;1.00
29003;DHT22;16102;57.138;-2.118;2022-07-23T13:19:25;17.40;1.00
29003;DHT22;16102;57.138;-2.118;2022-07-23T13:21:54;17.10;1.00
29003;DHT22;16102;57.138;-2.118;2022-07-23T13:24:21;17.10;13.70
29003;DHT22;16102;57.138;-2.118;2022-07-23T13:26:48;17.10;7.70
29003;DHT22;16102;57.138;-2.118;2022-07-23T13:29:18;17.10;1.00
29003;DHT22;16102;57.138;-2.118;2022-07-23T13:31:46;17.30;23.50
29003;DHT22;16102;57.138;-2.118;2022-07-23T13:34:15;17.40;1.00
29003;DHT22;16102;57.138;-2.118;2022-07-23T13:36:42;17.50;1.00
29003;DHT22;16102;57.138;-2.118;2022-07-23T13:39:10;17.40;1.00
29003;DHT22;16102;57.138;-2.118;2022-07-23T13:41:38;17.20;1.00
29003;DHT22;16102;57.138;-2.118;2022-07-23T13:44:05;17.20;1.00
29003;DHT22;16102;57.138;-2.118;2022-07-23T13:46:34;17.30;1.00
29003;DHT22;16102;57.138;-2.118;2022-07-23T13:49:02;17.30;1.00
29003;DHT22;16102;57.138;-2.118;2022-07-23T13:51:32;17.30;1.00
29003;DHT22;16102;57.138;-2.118;2022-07-23T13:53:59;17.40;1.00
29003;DHT22;16102;57.138;-2.118;2022-07-23T13:56:26;17.40;1.00
29003;DHT22;16102;57.138;-2.118;2022-07-23T13:58:53;17.60;1.00
29003;DHT22;16102;57.138;-2.118;2022-07-23T14:01:20;17.30;1.00
29003;DHT22;16102;57.138;-2.118;2022-07-23T14:03:48;17.20;1.00
29003;DHT22;16102;57.138;-2.118;2022-07-23T14:06:15;17.10;15.90
29003;DHT22;16102;57.138;-2.118;2022-07-23T14:08:43;17.10;51.70
29003;DHT22;16102;57.138;-2.118;2022-07-23T14:11:12;16.90;71.00
29003;DHT22;16102;57.138;-2.118;2022-07-23T14:13:39;16.80;99.90
29003;DHT22;16102;57.138;-2.118;2022-07-23T14:16:07;16.80;99.90
29003;DHT22;16102;57.138;-2.118;2022-07-23T14:18:34;17.00;99.90
29003;DHT22;16102;57.138;-2.118;2022-07-23T14:21:02;16.90;99.90
29003;DHT22;16102;57.138;-2.118;2022-07-23T14:23:29;16.80;99.90
29003;DHT22;16102;57.138;-2.118;2022-07-23T14:25:56;17.00;99.90
29003;DHT22;16102;57.138;-2.118;2022-07-23T14:28:24;17.10;99.90
29003;DHT22;16102;57.138;-2.118;2022-07-23T14:30:51;17.20;97.00
29003;DHT22;16102;57.138;-2.118;2022-07-23T14:33:18;17.10;97.50
29003;DHT22;16102;57.138;-2.118;2022-07-23T14:35:47;17.20;98.30
29003;DHT22;16102;57.138;-2.118;2022-07-23T14:38:14;17.30;92.10
29003;DHT22;16102;57.138;-2.118;2022-07-23T14:40:41;17.30;93.20
29003;DHT22;16102;57.138;-2.118;2022-07-23T14:43:08;17.40;76.10
29003;DHT22;16102;57.138;-2.118;2022-07-23T14:45:38;17.50;42.60
29003;DHT22;16102;57.138;-2.118;2022-07-23T14:48:07;17.60;26.80
29003;DHT22;16102;57.138;-2.118;2022-07-23T14:50:36;17.50;6.20
29003;DHT22;16102;57.138;-2.118;2022-07-23T14:53:03;17.50;6.20
29003;DHT22;16102;57.138;-2.118;2022-07-23T14:55:31;17.40;4.20
29003;DHT22;16102;57.138;-2.118;2022-07-23T14:58:00;17.40;7.80
29003;DHT22;16102;57.138;-2.118;2022-07-23T15:00:27;17.60;27.20
29003;DHT22;16102;57.138;-2.118;2022-07-23T15:02:55;17.80;6.60
29003;DHT22;16102;57.138;-2.118;2022-07-23T15:05:24;17.80;1.00
29003;DHT22;16102;57.138;-2.118;2022-07-23T15:07:52;17.80;1.00
29003;DHT22;16102;57.138;-2.118;2022-07-23T15:10:19;17.80;1.00
29003;DHT22;16102;57.138;-2.118;2022-07-23T15:12:49;17.60;1.00
29003;DHT22;16102;57.138;-2.118;2022-07-23T15:15:17;17.60;1.00
29003;DHT22;16102;57.138;-2.118;2022-07-23T15:17:44;17.60;1.00
29003;DHT22;16102;57.138;-2.118;2022-07-23T15:20:12;17.70;1.00
29003;DHT22;16102;57.138;-2.118;2022-07-23T15:22:41;17.60;1.00
29003;DHT22;16102;57.138;-2.118;2022-07-23T15:25:08;17.50;1.00
29003;DHT22;16102;57.138;-2.118;2022-07-23T15:27:38;17.50;1.00
29003;DHT22;16102;57.138;-2.118;2022-07-23T15:30:06;17.50;1.00
29003;DHT22;16102;57.138;-2.118;2022-07-23T15:32:34;17.60;1.00
29003;DHT22;16102;57.138;-2.118;2022-07-23T15:35:02;17.60;1.00
29003;DHT22;16102;57.138;-2.118;2022-07-23T15:37:32;17.70;1.00
29003;DHT22;16102;57.138;-2.118;2022-07-23T15:40:01;17.80;1.00
29003;DHT22;16102;57.138;-2.118;2022-07-23T15:42:31;17.70;1.00
29003;DHT22;16102;57.138;-2.118;2022-07-23T15:44:58;17.60;1.00
29003;DHT22;16102;57.138;-2.118;2022-07-23T15:47:26;17.60;1.00
29003;DHT22;16102;57.138;-2.118;2022-07-23T15:49:53;17.60;1.00
29003;DHT22;16102;57.138;-2.118;2022-07-23T15:52:22;17.60;1.00
29003;DHT22;16102;57.138;-2.118;2022-07-23T15:54:49;17.60;1.00
29003;DHT22;16102;57.138;-2.118;2022-07-23T15:57:17;17.60;1.00
29003;DHT22;16102;57.138;-2.118;2022-07-23T15:59:47;17.50;1.00
29003;DHT22;16102;57.138;-2.118;2022-07-23T16:02:14;17.40;1.00
29003;DHT22;16102;57.138;-2.118;2022-07-23T16:04:42;17.20;1.00
29003;DHT22;16102;57.138;-2.118;2022-07-23T16:07:09;17.20;1.00
29003;DHT22;16102;57.138;-2.118;2022-07-23T16:09:41;17.40;1.00
29003;DHT22;16102;57.138;-2.118;2022-07-23T16:12:08;17.40;1.00
29003;DHT22;16102;57.138;-2.118;2022-07-23T16:14:35;17.50;1.00
29003;DHT22;16102;57.138;-2.118;2022-07-23T16:17:03;17.60;1.00